Time;durP1;ratioP1;P1;durP2;ratioP2;P2;SDS_P1;SDS_P2;PMS_P1;PMS_P2;Temp;Humidity;BMP_temperature;BMP_pressure;BME280_temperature;BME280_humidity;BME280_pressure;Samples;Min_cycle;Max_cycle;Signal;HPM_P1;HPM_P2
2022/11/09 00:00:45;;;;;;;60.92;57.72;;;14.20;99.90;;;;;;5066563;28;20522;-55
2022/11/09 00:03:13;;;;;;;68.25;64.70;;;14.20;99.90;;;;;;5065604;28;20525;-54
2022/11/09 00:05:42;;;;;;;63.53;60.15;;;14.20;99.90;;;;;;5064161;28;20388;-55
2022/11/09 00:08:11;;;;;;;64.60;61.20;;;14.20;99.90;;;;;;5066704;28;20478;-52
2022/11/09 00:10:37;;;;;;;65.97;62.50;;;14.10;99.90;;;;;;5067622;28;20390;-54
2022/11/09 00:13:03;;;;;;;64.82;61.47;;;14.10;99.90;;;;;;5066720;28;20376;-52
2022/11/09 00:15:29;;;;;;;67.75;64.10;;;14.10;99.90;;;;;;5066484;28;20399;-52
2022/11/09 00:17:54;;;;;;;69.63;65.97;;;14.10;99.90;;;;;;5065361;28;20392;-54
2022/11/09 00:20:20;;;;;;;65.97;62.42;;;14.10;99.90;;;;;;5064770;28;20372;-54
2022/11/09 00:22:47;;;;;;;70.72;67.05;;;14.00;99.90;;;;;;5063871;28;20741;-55
2022/11/09 00:25:13;;;;;;;65.95;62.47;;;14.00;99.90;;;;;;5064167;28;20410;-55
2022/11/09 00:27:41;;;;;;;59.97;56.87;;;14.00;99.90;;;;;;5065845;28;20683;-54
2022/11/09 00:30:16;;;;;;;67.88;64.45;;;14.00;99.90;;;;;;5064689;28;20408;-58
2022/11/09 00:32:43;;;;;;;58.78;55.67;;;14.00;99.90;;;;;;5065820;28;20386;-53
2022/11/09 00:35:20;;;;;;;58.30;55.40;;;14.00;99.90;;;;;;5064278;28;20484;-54
2022/11/09 00:37:46;;;;;;;58.40;55.53;;;14.00;99.90;;;;;;5065485;28;20393;-55
2022/11/09 00:40:32;;;;;;;65.30;61.87;;;14.10;99.90;;;;;;5065312;28;20399;-53
2022/11/09 00:42:57;;;;;;;64.95;61.65;;;14.00;99.90;;;;;;5064555;28;20531;-55
2022/11/09 00:45:23;;;;;;;57.70;54.70;;;14.00;99.90;;;;;;5064142;28;20372;-53
2022/11/09 00:47:48;;;;;;;59.23;56.10;;;13.90;99.90;;;;;;5064867;28;20403;-56
2022/11/09 00:50:14;;;;;;;62.13;58.75;;;13.90;99.90;;;;;;5065604;28;20371;-56
2022/11/09 00:52:40;;;;;;;63.22;59.95;;;13.80;99.90;;;;;;5066841;28;20415;-50
2022/11/09 00:55:30;;;;;;;63.23;59.93;;;13.80;99.90;;;;;;5064787;28;20387;-53
2022/11/09 00:57:55;;;;;;;61.72;58.38;;;13.80;99.90;;;;;;5066679;28;20372;-52
2022/11/09 01:00:22;;;;;;;59.43;56.23;;;13.80;99.90;;;;;;5065269;28;20380;-54
2022/11/09 01:02:51;;;;;;;58.77;55.83;;;13.80;99.90;;;;;;5065724;28;20383;-51
2022/11/09 01:05:18;;;;;;;59.58;56.40;;;13.80;99.90;;;;;;5064189;28;20403;-52
2022/11/09 01:07:46;;;;;;;62.25;59.05;;;13.80;99.90;;;;;;5063354;28;20605;-50
2022/11/09 01:10:20;;;;;;;59.08;55.97;;;13.80;99.90;;;;;;5064735;28;20467;-50
2022/11/09 01:12:52;;;;;;;57.03;54.13;;;13.90;99.90;;;;;;5065004;28;20475;-54
2022/11/09 01:15:18;;;;;;;60.13;57.03;;;13.90;99.90;;;;;;5065078;28;20376;-54
2022/11/09 01:17:43;;;;;;;53.93;51.13;;;13.90;99.90;;;;;;5068038;28;20394;-53
2022/11/09 01:20:09;;;;;;;56.43;53.40;;;13.90;99.90;;;;;;5067355;28;20388;-54
2022/11/09 01:22:35;;;;;;;58.95;55.78;;;13.90;99.90;;;;;;5071262;28;20407;-50
2022/11/09 01:25:00;;;;;;;53.43;50.70;;;13.90;99.90;;;;;;5070393;28;20454;-49
2022/11/09 01:27:26;;;;;;;51.50;48.83;;;13.90;99.90;;;;;;5071871;28;20446;-50
2022/11/09 01:29:51;;;;;;;57.27;54.37;;;13.90;99.90;;;;;;5072300;28;20396;-52
2022/11/09 01:32:17;;;;;;;51.67;49.05;;;13.90;99.90;;;;;;5072603;28;20413;-55
2022/11/09 01:34:42;;;;;;;53.27;50.57;;;13.90;99.90;;;;;;5073939;28;20412;-53
2022/11/09 01:37:08;;;;;;;58.03;54.97;;;13.90;99.90;;;;;;5073960;28;20472;-52
2022/11/09 01:39:33;;;;;;;52.90;50.20;;;13.80;99.90;;;;;;5074600;28;20465;-56
2022/11/09 01:42:20;;;;;;;56.67;53.57;;;13.80;99.90;;;;;;5073492;28;20407;-54
2022/11/09 01:44:45;;;;;;;61.80;58.50;;;13.80;99.90;;;;;;5073845;28;20387;-52
2022/11/09 01:47:24;;;;;;;63.63;60.33;;;13.80;99.90;;;;;;5072406;28;20375;-54
2022/11/09 01:49:59;;;;;;;64.00;60.70;;;13.70;99.90;;;;;;5070928;28;20776;-57
2022/11/09 01:52:32;;;;;;;62.40;59.00;;;13.70;99.90;;;;;;5070697;28;20410;-56
2022/11/09 01:55:03;;;;;;;58.57;55.57;;;13.60;99.90;;;;;;5070822;28;20424;-55
2022/11/09 01:57:40;;;;;;;57.88;54.88;;;13.60;99.90;;;;;;5073014;28;20387;-52
2022/11/09 02:00:23;;;;;;;59.55;56.22;;;13.60;99.90;;;;;;5072214;28;20560;-55
2022/11/09 02:02:54;;;;;;;59.15;55.97;;;13.60;99.90;;;;;;5071573;28;20380;-57
2022/11/09 02:05:33;;;;;;;58.35;55.25;;;13.60;99.90;;;;;;5071334;28;20417;-52
2022/11/09 02:08:11;;;;;;;58.88;55.88;;;13.50;99.90;;;;;;5070036;28;20392;-57
2022/11/09 02:10:49;;;;;;;58.10;55.07;;;13.50;99.90;;;;;;5070207;28;20379;-55
2022/11/09 02:13:24;;;;;;;57.95;54.95;;;13.50;99.90;;;;;;5071992;28;20610;-51
2022/11/09 02:15:49;;;;;;;56.10;53.28;;;13.60;99.90;;;;;;5072831;28;20388;-52
2022/11/09 02:18:22;;;;;;;59.33;56.23;;;13.60;99.90;;;;;;5073582;28;20371;-56
2022/11/09 02:20:55;;;;;;;56.85;53.88;;;13.60;99.90;;;;;;5072766;28;20418;-55
2022/11/09 02:23:33;;;;;;;52.22;49.50;;;13.60;99.90;;;;;;5072384;28;20387;-56
2022/11/09 02:26:05;;;;;;;56.53;53.60;;;13.60;99.90;;;;;;5071720;28;20379;-53
2022/11/09 02:28:38;;;;;;;56.58;53.60;;;13.60;99.90;;;;;;5071411;28;20403;-51
2022/11/09 02:31:07;;;;;;;51.97;49.10;;;13.60;99.90;;;;;;5071531;28;20379;-54
2022/11/09 02:33:56;;;;;;;55.50;52.58;;;13.60;99.90;;;;;;5070031;28;20383;-51
2022/11/09 02:36:25;;;;;;;50.10;47.50;;;13.50;99.90;;;;;;5069931;28;20443;-52
2022/11/09 02:39:04;;;;;;;52.28;49.47;;;13.50;99.90;;;;;;5070942;28;20494;-55
2022/11/09 02:41:44;;;;;;;48.38;45.72;;;13.60;99.90;;;;;;5070014;28;20396;-53
2022/11/09 02:44:15;;;;;;;52.88;50.15;;;13.60;99.90;;;;;;5070772;28;20745;-56
2022/11/09 02:46:44;;;;;;;52.80;49.88;;;13.60;99.90;;;;;;5071281;28;20388;-55
2022/11/09 02:49:18;;;;;;;50.38;47.88;;;13.60;99.90;;;;;;5073462;28;20464;-56
2022/11/09 02:51:44;;;;;;;55.25;52.35;;;13.60;99.90;;;;;;5073668;28;20399;-55
2022/11/09 02:54:10;;;;;;;48.55;46.08;;;13.70;99.90;;;;;;5072412;28;20388;-56
2022/11/09 02:56:35;;;;;;;47.37;44.97;;;13.70;99.90;;;;;;5073497;28;20423;-52
2022/11/09 02:59:02;;;;;;;48.85;46.20;;;13.60;99.90;;;;;;5075224;28;20413;-55
2022/11/09 03:01:36;;;;;;;50.57;47.90;;;13.60;99.90;;;;;;5073036;28;20438;-53
2022/11/09 03:04:02;;;;;;;46.67;44.25;;;13.60;99.90;;;;;;5075175;28;20390;-54
2022/11/09 03:06:33;;;;;;;45.88;43.47;;;13.60;99.90;;;;;;5073699;28;20467;-51
2022/11/09 03:09:04;;;;;;;45.57;43.27;;;13.60;99.90;;;;;;5074302;28;20474;-51
2022/11/09 03:11:30;;;;;;;43.20;41.10;;;13.50;99.90;;;;;;5072853;28;20406;-55
2022/11/09 03:14:06;;;;;;;49.25;46.78;;;13.50;99.90;;;;;;5073040;28;20653;-52
2022/11/09 03:16:31;;;;;;;42.17;39.97;;;13.50;99.90;;;;;;5074166;28;20428;-50
2022/11/09 03:18:57;;;;;;;40.55;38.38;;;13.50;99.90;;;;;;5074556;28;20667;-54
2022/11/09 03:21:23;;;;;;;36.78;34.90;;;13.50;99.90;;;;;;5073242;28;20414;-55
2022/11/09 03:24:01;;;;;;;40.57;38.27;;;13.50;99.90;;;;;;5073500;28;20383;-55
2022/11/09 03:26:26;;;;;;;39.35;37.25;;;13.50;99.90;;;;;;5071507;28;20481;-57
2022/11/09 03:28:52;;;;;;;43.60;41.20;;;13.50;99.90;;;;;;5072090;28;20672;-57
2022/11/09 03:31:24;;;;;;;41.33;39.13;;;13.50;99.90;;;;;;5069534;28;20383;-55
2022/11/09 03:33:49;;;;;;;35.80;33.85;;;13.50;99.90;;;;;;5068787;28;20392;-53
2022/11/09 03:36:17;;;;;;;43.77;41.40;;;13.50;99.90;;;;;;5070569;28;20423;-53
2022/11/09 03:38:52;;;;;;;39.10;37.00;;;13.50;99.90;;;;;;5069682;28;20386;-54
2022/11/09 03:41:17;;;;;;;38.05;36.00;;;13.50;99.90;;;;;;5071512;28;20697;-56
2022/11/09 03:43:43;;;;;;;38.67;36.65;;;13.50;99.90;;;;;;5069668;28;20756;-55
2022/11/09 03:46:21;;;;;;;36.73;34.73;;;13.50;99.90;;;;;;5069077;28;20682;-56
2022/11/09 03:48:58;;;;;;;42.22;39.95;;;13.50;99.90;;;;;;5070805;28;20384;-56
2022/11/09 03:51:24;;;;;;;41.50;39.30;;;13.60;99.90;;;;;;5070239;28;20399;-52
2022/11/09 03:53:50;;;;;;;41.17;38.92;;;13.60;99.90;;;;;;5070435;28;20388;-53
2022/11/09 03:56:21;;;;;;;32.70;30.88;;;13.60;99.90;;;;;;5070788;28;20423;-57
2022/11/09 03:58:47;;;;;;;38.55;36.50;;;13.60;99.90;;;;;;5072684;28;20427;-57
2022/11/09 04:01:13;;;;;;;40.87;38.70;;;13.60;99.90;;;;;;5072317;28;20581;-55
2022/11/09 04:03:44;;;;;;;41.40;39.15;;;13.60;99.90;;;;;;5072418;28;20453;-53
2022/11/09 04:06:10;;;;;;;46.45;43.85;;;13.70;99.90;;;;;;5070859;28;20388;-52
2022/11/09 04:08:35;;;;;;;49.57;46.90;;;13.70;99.90;;;;;;5073806;28;20394;-52
2022/11/09 04:11:01;;;;;;;44.78;42.38;;;13.70;99.90;;;;;;5073090;28;20668;-54
2022/11/09 04:13:26;;;;;;;48.47;45.90;;;13.70;99.90;;;;;;5073415;28;20392;-51
2022/11/09 04:15:52;;;;;;;50.50;47.80;;;13.70;99.90;;;;;;5071312;28;20418;-52
2022/11/09 04:18:18;;;;;;;48.30;45.75;;;13.70;99.90;;;;;;5071507;28;20379;-55
2022/11/09 04:20:43;;;;;;;52.97;50.17;;;13.70;99.90;;;;;;5071770;28;20512;-52
2022/11/09 04:23:11;;;;;;;52.47;49.67;;;13.70;99.90;;;;;;5070982;28;20738;-57
2022/11/09 04:25:42;;;;;;;49.63;47.05;;;13.70;99.90;;;;;;5069327;28;20454;-56
2022/11/09 04:28:11;;;;;;;47.88;45.38;;;13.70;99.90;;;;;;5069193;28;20396;-50
2022/11/09 04:30:37;;;;;;;51.40;48.67;;;13.70;99.90;;;;;;5068681;28;20391;-52
2022/11/09 04:33:03;;;;;;;40.38;38.28;;;13.70;99.90;;;;;;5069681;28;20384;-51
2022/11/09 04:35:30;;;;;;;41.35;39.25;;;13.70;99.90;;;;;;5069040;28;20516;-56
2022/11/09 04:38:09;;;;;;;41.28;39.17;;;13.70;99.90;;;;;;5068193;28;20433;-57
2022/11/09 04:40:35;;;;;;;42.08;39.88;;;13.70;99.90;;;;;;5068959;28;20532;-56
2022/11/09 04:43:02;;;;;;;44.47;42.05;;;13.70;99.90;;;;;;5070682;28;20395;-54
2022/11/09 04:45:28;;;;;;;47.97;45.33;;;13.80;99.90;;;;;;5070315;28;20395;-53
2022/11/09 04:48:02;;;;;;;53.53;50.80;;;13.80;99.90;;;;;;5069465;28;20635;-55
2022/11/09 04:50:28;;;;;;;41.47;39.35;;;13.70;99.90;;;;;;5068869;28;20426;-55
2022/11/09 04:53:18;;;;;;;45.50;43.08;;;13.70;99.90;;;;;;5068573;28;20384;-55
2022/11/09 04:55:44;;;;;;;43.88;41.42;;;13.60;99.90;;;;;;5068425;28;20852;-55
2022/11/09 04:58:09;;;;;;;42.67;40.37;;;13.60;99.90;;;;;;5072017;28;20395;-57
2022/11/09 05:00:36;;;;;;;39.70;37.53;;;13.50;99.90;;;;;;5070068;28;20427;-53
2022/11/09 05:03:03;;;;;;;34.55;32.72;;;13.50;99.90;;;;;;5070768;28;20395;-54
2022/11/09 05:05:54;;;;;;;43.50;41.20;;;13.50;99.90;;;;;;5072829;28;20637;-57
2022/11/09 05:08:23;;;;;;;41.58;39.42;;;13.50;99.90;;;;;;5073934;28;20392;-56
2022/11/09 05:10:55;;;;;;;42.78;40.67;;;13.50;99.90;;;;;;5072473;28;20423;-54
2022/11/09 05:13:23;;;;;;;39.63;37.22;;;13.50;99.90;;;;;;5072767;28;20799;-55
2022/11/09 05:15:52;;;;;;;40.87;38.67;;;13.50;99.90;;;;;;5069072;28;20395;-56
2022/11/09 05:18:17;;;;;;;34.88;32.88;;;13.50;99.90;;;;;;5069444;28;20810;-55
2022/11/09 05:20:43;;;;;;;38.10;36.00;;;13.50;99.90;;;;;;5068810;28;20424;-56
2022/11/09 05:25:56;;;;;;;33.13;31.33;;;13.50;99.90;;;;;;5068414;28;20382;-53
2022/11/09 05:28:21;;;;;;;41.88;39.35;;;13.50;99.90;;;;;;5068653;28;20390;-53
2022/11/09 05:30:56;;;;;;;40.72;38.63;;;13.50;99.90;;;;;;5071143;28;20441;-52
2022/11/09 05:33:21;;;;;;;38.87;36.87;;;13.50;99.90;;;;;;5071171;28;20864;-53
2022/11/09 05:35:47;;;;;;;40.67;38.27;;;13.50;99.90;;;;;;5070836;28;20403;-56
2022/11/09 05:38:12;;;;;;;35.60;33.55;;;13.50;99.90;;;;;;5071082;28;20403;-56
2022/11/09 05:40:38;;;;;;;35.10;33.20;;;13.50;99.90;;;;;;5072336;28;20376;-55
2022/11/09 05:43:03;;;;;;;35.75;33.85;;;13.50;99.90;;;;;;5071420;28;20395;-56
2022/11/09 05:45:28;;;;;;;37.33;35.30;;;13.50;99.90;;;;;;5071083;28;20676;-57
2022/11/09 05:48:02;;;;;;;38.08;35.85;;;13.50;99.90;;;;;;5070985;28;20854;-55
2022/11/09 05:50:27;;;;;;;42.70;40.35;;;13.50;99.90;;;;;;5069049;28;20511;-50
2022/11/09 05:53:00;;;;;;;34.45;32.55;;;13.50;99.90;;;;;;5068630;28;20478;-56
2022/11/09 05:55:32;;;;;;;37.05;34.88;;;13.50;99.90;;;;;;5068064;28;20565;-53
2022/11/09 05:58:03;;;;;;;34.63;32.63;;;13.50;99.90;;;;;;5068928;28;20384;-56
2022/11/09 06:00:32;;;;;;;40.63;38.30;;;13.50;99.90;;;;;;5068080;28;20388;-52
2022/11/09 06:03:02;;;;;;;37.28;35.35;;;13.50;99.90;;;;;;5067146;28;20406;-55
2022/11/09 06:05:33;;;;;;;43.53;41.03;;;13.50;99.90;;;;;;5066728;28;20480;-56
2022/11/09 06:08:07;;;;;;;38.00;35.72;;;13.50;99.90;;;;;;5066172;28;20391;-57
2022/11/09 06:10:32;;;;;;;37.83;35.70;;;13.50;99.90;;;;;;5066268;28;20376;-57
2022/11/09 06:13:01;;;;;;;40.17;37.87;;;13.50;99.90;;;;;;5064385;28;20392;-57
2022/11/09 06:15:30;;;;;;;36.05;34.25;;;13.50;99.90;;;;;;5064539;28;20418;-55
2022/11/09 06:18:00;;;;;;;45.65;43.08;;;13.50;99.90;;;;;;5065563;28;20780;-56
2022/11/09 06:20:28;;;;;;;40.72;38.47;;;13.50;99.90;;;;;;5066256;28;20611;-57
2022/11/09 06:23:04;;;;;;;39.70;37.53;;;13.50;99.90;;;;;;5065853;28;20846;-55
2022/11/09 06:25:36;;;;;;;38.63;36.53;;;13.50;99.90;;;;;;5065973;28;20555;-56
2022/11/09 06:28:04;;;;;;;42.15;39.85;;;13.40;99.90;;;;;;5066441;28;20383;-54
2022/11/09 06:30:30;;;;;;;45.40;42.92;;;13.40;99.90;;;;;;5068174;28;20380;-55
2022/11/09 06:32:59;;;;;;;55.35;52.40;;;13.40;99.90;;;;;;5066967;28;20378;-51
2022/11/09 06:35:25;;;;;;;58.75;55.60;;;13.40;99.90;;;;;;5065173;28;20419;-54
2022/11/09 06:37:55;;;;;;;61.37;57.87;;;13.40;99.90;;;;;;5064589;28;20430;-52
2022/11/09 06:40:20;;;;;;;62.15;58.97;;;13.40;99.90;;;;;;5062924;28;20391;-50
2022/11/09 06:42:46;;;;;;;56.42;53.28;;;13.40;99.90;;;;;;5061832;28;20400;-57
2022/11/09 06:45:11;;;;;;;56.83;53.77;;;13.40;99.90;;;;;;5062656;28;20619;-54
2022/11/09 06:47:37;;;;;;;57.22;54.17;;;13.40;99.90;;;;;;5059909;28;20839;-52
2022/11/09 06:50:06;;;;;;;57.97;55.07;;;13.40;99.90;;;;;;5062433;28;20401;-56
2022/11/09 06:52:32;;;;;;;56.00;52.80;;;13.40;99.90;;;;;;5062396;28;20491;-55
2022/11/09 06:54:57;;;;;;;56.80;53.60;;;13.40;99.90;;;;;;5059960;28;20388;-56
2022/11/09 06:57:23;;;;;;;61.43;58.13;;;13.50;99.90;;;;;;5061716;28;20388;-53
2022/11/09 06:59:48;;;;;;;59.63;56.50;;;13.50;99.90;;;;;;5061428;28;20462;-56
2022/11/09 07:02:16;;;;;;;55.13;52.07;;;13.50;99.90;;;;;;5062441;28;20465;-55
2022/11/09 07:04:42;;;;;;;63.28;59.97;;;13.50;99.90;;;;;;5061089;28;20948;-54
2022/11/09 07:07:08;;;;;;;59.10;56.08;;;13.60;99.90;;;;;;5075788;28;20857;-55
2022/11/09 07:09:36;;;;;;;62.83;59.37;;;13.60;99.90;;;;;;5058832;28;20810;-56
2022/11/09 07:12:02;;;;;;;63.55;60.22;;;13.60;99.90;;;;;;5059265;28;20380;-56
2022/11/09 07:14:28;;;;;;;62.10;58.75;;;13.60;99.90;;;;;;5059079;28;20663;-54
2022/11/09 07:16:54;;;;;;;63.78;60.13;;;13.70;99.90;;;;;;5056899;28;20667;-55
2022/11/09 07:19:19;;;;;;;60.88;57.70;;;13.60;99.90;;;;;;5057662;28;20623;-54
2022/11/09 07:21:45;;;;;;;60.90;57.57;;;13.70;99.90;;;;;;5056026;28;20481;-52
2022/11/09 07:24:10;;;;;;;64.72;61.40;;;13.70;99.90;;;;;;5056123;28;20458;-55
2022/11/09 07:26:41;;;;;;;68.07;64.20;;;13.60;99.90;;;;;;5057578;28;20760;-54
2022/11/09 07:29:07;;;;;;;63.00;59.58;;;13.70;99.90;;;;;;5056247;28;20595;-52
2022/11/09 07:31:32;;;;;;;67.97;64.23;;;13.70;99.90;;;;;;5053978;28;20394;-55
2022/11/09 07:34:01;;;;;;;62.22;58.92;;;13.70;99.90;;;;;;5056100;28;20849;-52
2022/11/09 07:36:26;;;;;;;60.38;57.13;;;13.70;99.90;;;;;;5052033;28;20414;-56
2022/11/09 07:38:52;;;;;;;65.20;61.88;;;13.70;99.90;;;;;;5053510;28;20816;-53
2022/11/09 07:41:17;;;;;;;68.37;64.77;;;13.70;99.90;;;;;;5055885;28;20632;-55
2022/11/09 07:43:43;;;;;;;69.00;65.27;;;13.70;99.90;;;;;;5052763;28;20380;-56
2022/11/09 07:46:08;;;;;;;73.73;69.83;;;13.70;99.90;;;;;;5054409;28;20395;-55
2022/11/09 07:48:34;;;;;;;70.80;67.07;;;13.70;99.90;;;;;;5056503;28;20889;-54
2022/11/09 07:51:00;;;;;;;74.07;70.07;;;13.70;99.90;;;;;;5058013;28;20960;-57
2022/11/09 07:53:26;;;;;;;71.53;67.83;;;13.70;99.90;;;;;;5057459;28;20394;-50
2022/11/09 07:56:00;;;;;;;77.73;73.53;;;13.70;99.90;;;;;;5058664;28;20667;-54
2022/11/09 07:58:26;;;;;;;76.88;72.88;;;13.70;99.90;;;;;;5063055;28;21158;-54
2022/11/09 08:00:52;;;;;;;79.50;75.30;;;13.80;99.90;;;;;;5062694;28;20723;-57
2022/11/09 08:03:22;;;;;;;73.55;69.55;;;13.80;99.90;;;;;;5062585;28;20379;-52
2022/11/09 08:05:55;;;;;;;75.15;70.85;;;13.80;99.90;;;;;;5061861;28;20494;-55
2022/11/09 08:08:20;;;;;;;71.07;67.15;;;13.80;99.90;;;;;;5060427;28;20878;-51
2022/11/09 08:10:50;;;;;;;74.67;70.53;;;13.80;99.90;;;;;;5058259;28;20539;-54
2022/11/09 08:13:16;;;;;;;76.63;72.35;;;13.80;99.90;;;;;;5056817;28;20376;-57
2022/11/09 08:15:41;;;;;;;69.00;65.22;;;13.80;99.90;;;;;;5058453;28;20391;-56
2022/11/09 08:18:11;;;;;;;64.97;61.05;;;13.80;99.90;;;;;;5057273;28;20395;-52
2022/11/09 08:20:36;;;;;;;67.65;63.67;;;13.90;99.90;;;;;;5062159;28;20960;-56
2022/11/09 08:23:02;;;;;;;76.68;72.38;;;13.90;99.90;;;;;;5066194;28;20843;-55
2022/11/09 08:25:28;;;;;;;70.38;66.60;;;13.90;99.90;;;;;;5061671;28;20603;-51
2022/11/09 08:27:57;;;;;;;65.63;62.10;;;13.90;99.90;;;;;;5055734;28;20691;-52
2022/11/09 08:30:32;;;;;;;67.80;64.03;;;13.90;99.90;;;;;;5053709;28;20434;-55
2022/11/09 08:32:59;;;;;;;68.88;65.13;;;14.00;99.90;;;;;;5057845;28;20384;-55
2022/11/09 08:35:28;;;;;;;70.93;67.03;;;14.00;99.90;;;;;;5054095;28;20675;-57
2022/11/09 08:37:54;;;;;;;65.63;61.95;;;14.10;99.90;;;;;;5056151;28;20466;-56
2022/11/09 08:40:23;;;;;;;64.95;61.38;;;14.20;99.90;;;;;;5053725;28;20648;-54
2022/11/09 08:43:00;;;;;;;62.60;58.97;;;14.20;99.90;;;;;;5050084;28;20409;-54
2022/11/09 08:45:26;;;;;;;58.93;55.57;;;14.20;99.90;;;;;;5050815;28;20375;-56
2022/11/09 08:47:56;;;;;;;60.50;57.00;;;14.20;99.90;;;;;;5053069;28;20457;-54
2022/11/09 08:50:22;;;;;;;56.50;53.28;;;14.30;99.90;;;;;;5056780;28;20380;-56
2022/11/09 08:52:48;;;;;;;58.55;54.50;;;14.30;99.90;;;;;;5055811;28;20976;-54
2022/11/09 08:55:13;;;;;;;58.97;55.53;;;14.30;99.90;;;;;;5061984;28;20430;-56
2022/11/09 08:57:39;;;;;;;49.40;46.63;;;14.30;99.90;;;;;;5061655;28;20560;-54
2022/11/09 09:00:05;;;;;;;55.78;52.60;;;14.40;99.90;;;;;;5062103;28;20390;-56
2022/11/09 09:02:31;;;;;;;50.10;47.13;;;14.40;99.90;;;;;;5060082;28;20418;-54
2022/11/09 09:04:57;;;;;;;54.00;50.57;;;14.50;99.90;;;;;;5059015;28;20384;-57
2022/11/09 09:07:23;;;;;;;51.70;48.67;;;14.60;99.90;;;;;;5061648;28;20478;-54
2022/11/09 09:09:48;;;;;;;47.88;45.20;;;15.00;99.90;;;;;;5061706;28;20418;-55
2022/11/09 09:12:14;;;;;;;49.90;46.90;;;15.30;99.90;;;;;;5064292;28;20391;-54
2022/11/09 09:14:39;;;;;;;51.77;48.80;;;15.50;99.90;;;;;;5062716;28;20403;-56
2022/11/09 09:17:05;;;;;;;56.53;53.08;;;15.50;99.90;;;;;;5060087;28;20388;-55
2022/11/09 09:19:31;;;;;;;47.55;44.72;;;15.50;99.90;;;;;;5061542;28;20997;-56
2022/11/09 09:22:06;;;;;;;57.03;53.75;;;15.60;99.90;;;;;;5061053;28;20509;-54
2022/11/09 09:24:32;;;;;;;53.80;50.60;;;15.60;99.90;;;;;;5061753;28;20390;-56
2022/11/09 09:26:57;;;;;;;52.43;49.33;;;15.60;99.90;;;;;;5061382;28;20383;-56
2022/11/09 09:29:23;;;;;;;56.53;53.07;;;15.60;99.90;;;;;;5060172;28;20387;-55
2022/11/09 09:31:49;;;;;;;49.60;46.60;;;15.40;99.90;;;;;;5061087;28;20380;-56
2022/11/09 09:34:15;;;;;;;42.72;40.08;;;15.40;99.90;;;;;;5059572;28;20426;-56
2022/11/09 09:36:40;;;;;;;49.05;46.20;;;15.40;99.90;;;;;;5059266;28;20427;-53
2022/11/09 09:39:06;;;;;;;55.08;51.83;;;15.20;99.90;;;;;;5057343;28;20388;-56
2022/11/09 09:41:44;;;;;;;55.30;52.07;;;15.30;99.90;;;;;;5055331;28;20411;-55
2022/11/09 09:44:31;;;;;;;45.35;42.67;;;15.10;99.90;;;;;;5058565;28;20457;-55
2022/11/09 09:47:15;;;;;;;49.97;47.25;;;15.10;99.90;;;;;;5059888;28;20552;-52
2022/11/09 09:49:48;;;;;;;57.17;53.60;;;15.00;99.90;;;;;;5061608;28;20490;-54
2022/11/09 09:52:28;;;;;;;52.55;49.47;;;15.00;99.90;;;;;;5063281;28;20375;-56
2022/11/09 09:55:00;;;;;;;47.10;44.28;;;14.90;99.90;;;;;;5065251;28;20444;-58
2022/11/09 09:57:28;;;;;;;51.60;48.60;;;14.90;99.90;;;;;;5067669;28;21011;-57
2022/11/09 09:59:59;;;;;;;41.95;39.53;;;14.80;99.90;;;;;;5067647;28;20391;-57
2022/11/09 10:02:30;;;;;;;47.55;44.85;;;14.80;99.90;;;;;;5065345;28;20415;-57
2022/11/09 10:05:05;;;;;;;48.87;45.97;;;15.00;99.90;;;;;;5065430;28;20388;-53
2022/11/09 10:08:00;;;;;;;50.53;47.53;;;15.10;99.90;;;;;;5065719;28;20453;-55
2022/11/09 10:10:59;;;;;;;47.60;44.83;;;15.10;99.90;;;;;;5064090;28;20483;-57
2022/11/09 10:14:04;;;;;;;37.97;35.60;;;15.20;99.90;;;;;;5066813;28;20393;-54
2022/11/09 10:16:56;;;;;;;54.92;51.45;;;15.30;99.90;;;;;;5032645;28;20387;-48
2022/11/09 10:19:53;;;;;;;38.97;36.47;;;15.30;99.90;;;;;;5065754;28;20798;-58
2022/11/09 10:22:38;;;;;;;43.10;40.40;;;15.30;99.90;;;;;;5040767;28;20399;-58
2022/11/09 10:25:24;;;;;;;46.70;44.03;;;15.30;99.90;;;;;;5063937;28;20429;-56
2022/11/09 10:27:55;;;;;;;39.35;37.05;;;15.30;99.90;;;;;;5064587;28;20550;-56
2022/11/09 10:30:23;;;;;;;48.50;45.55;;;15.40;99.90;;;;;;5063925;28;20392;-57
2022/11/09 10:32:53;;;;;;;49.33;46.33;;;15.40;99.90;;;;;;5062850;28;20808;-55
2022/11/09 10:35:38;;;;;;;44.70;41.87;;;15.40;99.90;;;;;;5062500;28;20829;-56
2022/11/09 10:38:04;;;;;;;51.90;48.67;;;15.50;99.90;;;;;;5064126;28;20471;-56
2022/11/09 10:40:37;;;;;;;48.73;45.83;;;15.60;99.90;;;;;;5065403;28;20384;-56
2022/11/09 10:43:10;;;;;;;59.40;55.78;;;15.70;99.90;;;;;;5063855;28;20477;-57
2022/11/09 10:45:38;;;;;;;56.00;52.55;;;15.70;99.90;;;;;;5065382;28;20479;-56
2022/11/09 10:48:05;;;;;;;49.60;46.80;;;15.70;99.90;;;;;;5065865;28;20386;-58
2022/11/09 10:50:40;;;;;;;55.05;51.83;;;15.70;99.90;;;;;;5064321;28;20995;-58
2022/11/09 10:53:18;;;;;;;67.88;63.47;;;15.70;99.90;;;;;;5064789;28;20463;-57
2022/11/09 10:56:04;;;;;;;48.50;45.63;;;15.60;99.90;;;;;;5062230;28;20384;-55
2022/11/09 10:58:37;;;;;;;52.35;49.15;;;15.70;99.90;;;;;;5051669;28;20403;-55
2022/11/09 11:01:04;;;;;;;60.70;57.20;;;15.80;99.90;;;;;;5061261;28;20411;-56
2022/11/09 11:03:34;;;;;;;97.38;92.25;;;16.00;99.90;;;;;;5062399;28;20488;-57
2022/11/09 11:06:13;;;;;;;115.97;109.80;;;16.00;99.90;;;;;;5064489;28;20380;-55
2022/11/09 11:08:42;;;;;;;65.22;61.38;;;16.00;99.90;;;;;;5065987;28;20386;-56
2022/11/09 11:11:13;;;;;;;81.75;77.30;;;16.10;99.90;;;;;;5064119;28;20676;-57
2022/11/09 11:13:39;;;;;;;85.93;81.32;;;16.30;99.90;;;;;;5064008;28;20403;-54
2022/11/09 11:16:23;;;;;;;113.87;107.27;;;16.40;99.90;;;;;;5065091;28;20537;-56
2022/11/09 11:18:49;;;;;;;106.50;100.95;;;16.20;99.90;;;;;;5065389;28;20431;-54
2022/11/09 11:21:17;;;;;;;83.57;79.07;;;16.10;99.90;;;;;;5065937;28;20494;-52
2022/11/09 11:23:43;;;;;;;72.70;68.73;;;16.20;99.90;;;;;;5066340;28;20380;-56
2022/11/09 11:26:49;;;;;;;74.97;70.77;;;16.20;99.90;;;;;;5067642;28;20391;-53
2022/11/09 11:29:17;;;;;;;84.90;80.20;;;16.30;99.90;;;;;;5067443;28;20387;-57
2022/11/09 11:31:43;;;;;;;74.20;70.10;;;16.30;99.90;;;;;;5064985;28;20829;-55
2022/11/09 11:34:13;;;;;;;75.30;71.22;;;16.30;99.90;;;;;;5064475;28;20387;-55
2022/11/09 11:37:22;;;;;;;71.22;67.07;;;16.40;99.90;;;;;;5064008;28;21116;-56
2022/11/09 11:40:24;;;;;;;82.13;77.55;;;16.30;99.90;;;;;;5043811;28;20395;-56
2022/11/09 11:43:33;;;;;;;82.65;78.22;;;16.30;99.90;;;;;;5064859;28;20784;-54
2022/11/09 11:46:16;;;;;;;89.03;84.03;;;16.20;99.90;;;;;;4986172;28;20393;-54
2022/11/09 11:48:57;;;;;;;74.75;70.45;;;16.10;99.90;;;;;;5064563;28;20371;-55
2022/11/09 11:51:50;;;;;;;85.35;80.68;;;16.00;99.90;;;;;;5066512;28;20380;-54
2022/11/09 11:54:40;;;;;;;71.72;67.65;;;16.00;99.90;;;;;;5066142;28;20873;-54
2022/11/09 11:57:22;;;;;;;72.18;68.18;;;15.90;99.90;;;;;;5066689;28;20396;-52
2022/11/09 12:00:05;;;;;;;88.75;83.55;;;15.80;99.90;;;;;;5065489;28;20395;-57
2022/11/09 12:03:16;;;;;;;65.38;61.67;;;15.70;99.90;;;;;;5062132;28;20502;-54
2022/11/09 12:06:14;;;;;;;71.03;66.95;;;15.70;99.90;;;;;;5048531;28;20381;-56
2022/11/09 12:09:06;;;;;;;75.85;71.25;;;15.60;99.90;;;;;;5060974;28;20387;-53
2022/11/09 12:12:03;;;;;;;73.78;69.72;;;15.80;99.90;;;;;;5059681;28;20935;-54
2022/11/09 12:14:54;;;;;;;56.33;52.93;;;15.80;99.90;;;;;;5059826;28;20738;-55
2022/11/09 12:17:38;;;;;;;63.78;60.00;;;15.80;99.90;;;;;;5027702;28;20409;-56
2022/11/09 12:20:17;;;;;;;65.35;61.55;;;16.00;99.90;;;;;;5058195;28;20490;-55
2022/11/09 12:22:56;;;;;;;69.85;65.82;;;16.10;99.90;;;;;;5058610;28;20419;-55
2022/11/09 12:25:35;;;;;;;75.43;71.18;;;16.10;99.90;;;;;;5058680;28;20481;-55
2022/11/09 12:28:24;;;;;;;65.97;62.38;;;16.00;99.90;;;;;;5057846;28;20395;-52
2022/11/09 12:31:20;;;;;;;66.80;62.92;;;16.00;99.90;;;;;;5055657;28;20384;-55
2022/11/09 12:34:01;;;;;;;64.03;60.15;;;16.20;99.90;;;;;;5058172;28;20836;-56
2022/11/09 12:36:43;;;;;;;63.83;60.35;;;16.20;99.90;;;;;;5058447;28;20472;-56
2022/11/09 12:39:35;;;;;;;74.82;70.88;;;16.40;99.90;;;;;;5073389;28;20380;-55
2022/11/09 12:42:20;;;;;;;79.07;74.28;;;16.40;99.90;;;;;;5056017;28;21083;-56
2022/11/09 12:45:02;;;;;;;72.05;68.03;;;16.50;99.90;;;;;;5057267;28;20438;-54
2022/11/09 12:47:41;;;;;;;65.00;61.47;;;16.40;99.90;;;;;;5058786;28;20867;-52
2022/11/09 12:50:14;;;;;;;70.50;66.75;;;16.40;99.90;;;;;;5055628;28;20655;-54